createdAt,value
2024-01-16T00:01:44.878Z,1.77
2024-01-16T00:04:12.069Z,1.50
2024-01-16T00:06:44.406Z,1.50
2024-01-16T00:09:12.491Z,3.80
2024-01-16T00:11:43.109Z,1.83
2024-01-16T00:14:09.899Z,4.70
2024-01-16T00:16:46.596Z,3.63
2024-01-16T00:19:13.540Z,3.67
2024-01-16T00:21:47.561Z,3.77
2024-01-16T00:24:15.012Z,1.40
2024-01-16T00:26:41.507Z,2.13
2024-01-16T00:29:09.638Z,1.40
2024-01-16T00:31:36.060Z,1.20
2024-01-16T00:34:03.828Z,0.90
2024-01-16T00:36:31.014Z,1.67
2024-01-16T00:38:57.686Z,1.40
2024-01-16T00:41:24.049Z,9.30
2024-01-16T00:43:51.019Z,1.83
2024-01-16T00:46:17.414Z,1.97
2024-01-16T00:48:44.240Z,1.87
2024-01-16T00:51:10.730Z,4.80
2024-01-16T00:53:44.217Z,1.83
2024-01-16T00:56:13.036Z,2.57
2024-01-16T00:58:39.878Z,1.13
2024-01-16T01:01:06.695Z,1.17
2024-01-16T01:03:33.479Z,1.10
2024-01-16T01:06:01.822Z,0.93
2024-01-16T01:08:28.863Z,1.00
2024-01-16T01:10:55.380Z,1.40
2024-01-16T01:13:22.957Z,1.20
2024-01-16T01:15:49.423Z,1.57
2024-01-16T01:18:16.261Z,1.60
2024-01-16T01:20:42.958Z,3.00
2024-01-16T01:23:10.627Z,2.13
2024-01-16T01:25:37.251Z,1.67
2024-01-16T01:28:04.430Z,1.40
2024-01-16T01:30:30.961Z,1.40
2024-01-16T01:32:57.762Z,1.10
2024-01-16T01:35:24.419Z,1.20
2024-01-16T01:37:51.806Z,1.43
2024-01-16T01:40:18.554Z,3.00
2024-01-16T01:42:45.210Z,3.10
2024-01-16T01:45:12.131Z,2.37
2024-01-16T01:47:40.447Z,2.13
2024-01-16T01:50:08.562Z,1.67
2024-01-16T01:52:37.885Z,1.90
2024-01-16T01:55:06.414Z,1.27
2024-01-16T01:57:34.724Z,1.30
2024-01-16T02:00:01.995Z,1.57
2024-01-16T02:02:42.026Z,1.47
2024-01-16T02:05:08.700Z,1.50
2024-01-16T02:07:36.222Z,2.20
2024-01-16T02:10:03.123Z,2.00
2024-01-16T02:12:30.488Z,1.80
2024-01-16T02:14:56.805Z,3.40
2024-01-16T02:17:23.547Z,5.80
2024-01-16T02:19:49.929Z,13.87
2024-01-16T02:22:21.854Z,4.60
2024-01-16T02:24:49.305Z,3.00
2024-01-16T02:27:16.056Z,2.60
2024-01-16T02:29:45.859Z,3.40
2024-01-16T02:32:13.421Z,3.20
2024-01-16T02:34:39.824Z,3.37
2024-01-16T02:37:06.496Z,3.57
2024-01-16T02:39:33.215Z,2.60
2024-01-16T02:41:59.943Z,2.03
2024-01-16T02:44:26.361Z,1.90
2024-01-16T02:46:53.192Z,2.53
2024-01-16T02:49:19.644Z,2.97
2024-01-16T02:51:46.366Z,2.80
2024-01-16T02:54:12.815Z,3.17
2024-01-16T02:56:39.847Z,4.87
2024-01-16T02:59:06.318Z,3.03
2024-01-16T03:01:33.555Z,2.50
2024-01-16T03:03:59.996Z,1.57
2024-01-16T03:06:26.925Z,2.80
2024-01-16T03:08:54.051Z,2.97
2024-01-16T03:11:20.908Z,2.43
2024-01-16T03:13:49.117Z,2.37
2024-01-16T03:16:16.304Z,1.93
2024-01-16T03:18:42.787Z,3.80
2024-01-16T03:21:11.101Z,7.97
2024-01-16T03:23:37.602Z,2.27
2024-01-16T03:26:04.649Z,3.07
2024-01-16T03:28:31.195Z,2.03
2024-01-16T03:30:57.974Z,1.93
2024-01-16T03:33:24.725Z,1.60
2024-01-16T03:35:51.533Z,1.33
2024-01-16T03:38:17.956Z,3.73
2024-01-16T03:40:44.819Z,1.90
2024-01-16T03:43:11.209Z,2.03
2024-01-16T03:45:37.960Z,7.40
2024-01-16T03:48:05.609Z,3.83
2024-01-16T03:50:34.177Z,1.67
2024-01-16T03:53:00.608Z,1.63
2024-01-16T03:55:27.303Z,19.80
2024-01-16T03:57:53.752Z,7.67
2024-01-16T04:00:20.470Z,1.83
2024-01-16T04:02:46.906Z,1.43
2024-01-16T04:05:14.050Z,2.83
2024-01-16T04:07:40.591Z,4.60
2024-01-16T04:10:07.877Z,5.17
2024-01-16T04:12:34.263Z,2.37
2024-01-16T04:15:00.861Z,2.80
2024-01-16T04:17:27.477Z,9.27
2024-01-16T04:19:54.137Z,13.93
2024-01-16T04:22:20.439Z,7.37
2024-01-16T04:24:48.110Z,4.40
2024-01-16T04:27:14.462Z,3.60
2024-01-16T04:29:41.419Z,2.90
2024-01-16T04:32:08.541Z,3.30
2024-01-16T04:34:35.298Z,3.73
2024-01-16T04:37:01.647Z,5.40
2024-01-16T04:39:28.428Z,3.77
2024-01-16T04:41:54.983Z,3.70
2024-01-16T04:44:21.743Z,3.37
2024-01-16T04:46:48.138Z,2.60
2024-01-16T04:49:14.994Z,2.30
2024-01-16T04:51:41.497Z,7.90
2024-01-16T04:54:08.277Z,5.20
2024-01-16T04:56:34.804Z,4.77
2024-01-16T04:59:01.906Z,7.50
2024-01-16T05:01:28.428Z,3.37
2024-01-16T05:03:55.382Z,3.40
2024-01-16T05:06:21.996Z,3.77
2024-01-16T05:08:49.198Z,5.27
2024-01-16T05:11:15.971Z,4.63
2024-01-16T05:13:42.975Z,4.43
2024-01-16T05:16:09.700Z,4.07
2024-01-16T05:18:36.686Z,7.03
2024-01-16T05:21:05.138Z,5.60
2024-01-16T05:23:32.185Z,5.90
2024-01-16T05:25:59.234Z,6.03
2024-01-16T05:28:26.089Z,5.13
2024-01-16T05:30:52.856Z,5.67
2024-01-16T05:33:19.957Z,5.00
2024-01-16T05:35:46.506Z,5.17
2024-01-16T05:38:13.284Z,4.87
2024-01-16T05:40:40.430Z,5.63
2024-01-16T05:43:07.221Z,7.83
2024-01-16T05:45:33.608Z,5.50
2024-01-16T05:48:00.715Z,8.47
2024-01-16T05:50:27.275Z,6.57
2024-01-16T05:52:54.675Z,6.27
2024-01-16T05:55:21.989Z,4.70
2024-01-16T05:57:49.041Z,5.10
2024-01-16T06:00:18.404Z,4.67
2024-01-16T06:02:45.343Z,4.70
2024-01-16T06:05:12.211Z,3.57
2024-01-16T06:07:40.320Z,3.30
2024-01-16T06:10:07.503Z,3.37
2024-01-16T06:12:34.580Z,3.30
2024-01-16T06:15:01.095Z,3.40
2024-01-16T06:17:28.072Z,4.73
2024-01-16T06:19:54.829Z,6.70
2024-01-16T06:22:21.594Z,5.83
2024-01-16T06:24:48.037Z,6.97
2024-01-16T06:27:19.436Z,7.53
2024-01-16T06:29:46.933Z,10.33
2024-01-16T06:32:13.675Z,6.10
2024-01-16T06:34:40.437Z,5.50
2024-01-16T06:37:07.497Z,6.37
2024-01-16T06:39:34.933Z,5.27
2024-01-16T06:42:02.339Z,6.20
2024-01-16T06:44:28.770Z,6.47
2024-01-16T06:46:55.894Z,6.80
2024-01-16T06:49:22.434Z,3.60
2024-01-16T06:51:49.337Z,2.93
2024-01-16T06:54:15.852Z,2.83
2024-01-16T06:56:42.789Z,3.47
2024-01-16T06:59:12.023Z,3.20
2024-01-16T07:01:39.089Z,4.20
2024-01-16T07:04:05.612Z,3.30
2024-01-16T07:06:32.583Z,3.27
2024-01-16T07:08:59.051Z,7.53
2024-01-16T07:11:25.932Z,4.60
2024-01-16T07:13:52.365Z,4.70
2024-01-16T07:16:19.074Z,5.57
2024-01-16T07:18:48.258Z,24.83
2024-01-16T07:21:22.005Z,20.10
2024-01-16T07:23:48.729Z,20.70
2024-01-16T07:26:16.938Z,16.57
2024-01-16T07:28:44.198Z,10.93
2024-01-16T07:31:12.052Z,10.67
2024-01-16T07:33:38.458Z,13.53
2024-01-16T07:36:06.705Z,12.00
2024-01-16T07:38:33.182Z,15.63
2024-01-16T07:41:00.195Z,16.47
2024-01-16T07:43:26.879Z,14.67
2024-01-16T07:45:53.771Z,15.10
2024-01-16T07:48:20.378Z,14.53
2024-01-16T07:50:47.243Z,13.33
2024-01-16T07:53:15.542Z,13.07
2024-01-16T07:55:43.285Z,12.43
2024-01-16T07:58:13.435Z,8.73
2024-01-16T08:00:41.296Z,8.37
2024-01-16T08:03:11.805Z,5.57
2024-01-16T08:05:39.999Z,4.27
2024-01-16T08:08:10.213Z,3.67
2024-01-16T08:10:37.435Z,4.33
2024-01-16T08:13:03.857Z,5.87
2024-01-16T08:15:30.654Z,5.90
2024-01-16T08:17:57.261Z,5.10
2024-01-16T08:20:24.504Z,4.53
2024-01-16T08:22:51.148Z,5.30
2024-01-16T08:25:18.124Z,4.30
2024-01-16T08:27:44.762Z,5.10
2024-01-16T08:30:12.845Z,5.80
2024-01-16T08:32:39.452Z,5.30
2024-01-16T08:35:07.065Z,4.43
2024-01-16T08:37:34.602Z,4.60
2024-01-16T08:40:03.692Z,5.77
2024-01-16T08:42:31.207Z,4.73
2024-01-16T08:44:57.973Z,4.43
2024-01-16T08:47:24.626Z,3.70
2024-01-16T08:49:51.427Z,7.07
2024-01-16T08:52:17.858Z,3.67
2024-01-16T08:54:44.838Z,4.30
2024-01-16T08:57:12.041Z,6.67
2024-01-16T08:59:41.290Z,3.63
2024-01-16T09:02:08.246Z,3.23
2024-01-16T09:04:35.255Z,5.07
2024-01-16T09:07:04.988Z,8.17
2024-01-16T09:09:31.927Z,7.97
2024-01-16T09:11:58.605Z,6.30
2024-01-16T09:14:25.425Z,5.83
2024-01-16T09:16:53.605Z,7.50
2024-01-16T09:19:20.535Z,11.57
2024-01-16T09:21:48.406Z,9.13
2024-01-16T09:24:15.118Z,12.40
2024-01-16T09:26:41.523Z,14.40
2024-01-16T09:29:10.150Z,13.67
2024-01-16T09:31:36.960Z,5.43
2024-01-16T09:34:08.262Z,10.80
2024-01-16T09:36:37.216Z,8.73
2024-01-16T09:39:08.415Z,10.43
2024-01-16T09:41:35.559Z,9.70
2024-01-16T09:44:05.471Z,5.83
2024-01-16T09:46:40.357Z,7.77
2024-01-16T09:49:07.627Z,10.80
2024-01-16T09:51:34.178Z,13.77
2024-01-16T09:54:02.439Z,17.43
2024-01-16T09:56:30.984Z,10.53
2024-01-16T09:59:06.438Z,6.70
2024-01-16T10:01:34.022Z,5.80
2024-01-16T10:04:00.925Z,7.90
2024-01-16T10:06:28.458Z,6.40
2024-01-16T10:08:55.420Z,6.50
2024-01-16T10:11:21.928Z,6.43
2024-01-16T10:13:51.631Z,7.00
2024-01-16T10:16:18.053Z,6.37
2024-01-16T10:18:45.018Z,2.83
2024-01-16T10:21:23.525Z,3.63
2024-01-16T10:23:50.895Z,5.73
2024-01-16T10:26:19.009Z,5.23
2024-01-16T10:28:45.988Z,4.00
2024-01-16T10:31:16.990Z,6.17
2024-01-16T10:33:44.067Z,3.20
2024-01-16T10:36:20.159Z,3.23
2024-01-16T10:38:47.325Z,3.57
2024-01-16T10:41:17.843Z,4.17
2024-01-16T10:43:45.665Z,3.00
2024-01-16T10:46:14.565Z,3.27
2024-01-16T10:48:43.743Z,3.00
2024-01-16T10:51:14.249Z,2.60
2024-01-16T10:53:44.530Z,2.60
2024-01-16T10:56:12.842Z,3.03
2024-01-16T10:58:42.650Z,3.37
2024-01-16T11:01:16.090Z,3.27
2024-01-16T11:03:45.952Z,4.00
2024-01-16T11:06:14.738Z,2.60
2024-01-16T11:08:42.486Z,1.60
2024-01-16T11:11:10.025Z,4.07
2024-01-16T11:13:39.208Z,2.60
2024-01-16T11:16:07.465Z,2.80
2024-01-16T11:18:38.059Z,4.53
2024-01-16T11:21:14.325Z,2.93
2024-01-16T11:23:45.659Z,2.10
2024-01-16T11:26:33.098Z,2.27
2024-01-16T11:29:01.769Z,2.27
2024-01-16T11:31:36.050Z,2.47
2024-01-16T11:34:04.368Z,1.77
2024-01-16T11:36:54.702Z,1.93
2024-01-16T11:39:30.145Z,1.93
2024-01-16T11:41:58.845Z,2.47
2024-01-16T11:44:51.280Z,3.37
2024-01-16T11:47:23.740Z,2.37
2024-01-16T11:50:07.972Z,3.37
2024-01-16T11:52:45.325Z,2.03
2024-01-16T11:55:33.277Z,2.83
2024-01-16T11:58:12.058Z,3.07
2024-01-16T12:00:42.525Z,2.43
2024-01-16T12:03:11.681Z,2.57
2024-01-16T12:05:38.922Z,2.63
2024-01-16T12:08:06.683Z,2.83
2024-01-16T12:10:34.238Z,3.10
2024-01-16T12:13:05.218Z,2.70
2024-01-16T12:15:33.487Z,3.00
2024-01-16T12:18:01.957Z,3.57
2024-01-16T12:20:35.262Z,3.20
2024-01-16T12:23:07.297Z,2.70
2024-01-16T12:26:00.820Z,2.83
2024-01-16T12:28:31.971Z,2.70
2024-01-16T12:31:02.312Z,2.63
2024-01-16T12:33:30.911Z,2.90
2024-01-16T12:36:06.826Z,2.63
2024-01-16T12:38:35.785Z,2.97
2024-01-16T12:41:09.053Z,2.93
2024-01-16T12:43:37.483Z,3.23
2024-01-16T12:46:04.375Z,2.80
2024-01-16T12:48:31.410Z,2.73
2024-01-16T12:51:02.969Z,3.20
2024-01-16T12:53:29.871Z,3.33
2024-01-16T12:56:01.342Z,3.53
2024-01-16T12:58:36.607Z,3.33
2024-01-16T13:01:33.844Z,3.47
2024-01-16T13:04:05.674Z,4.20
2024-01-16T13:06:32.886Z,4.50
2024-01-16T13:09:11.849Z,4.53
2024-01-16T13:11:55.394Z,3.97
2024-01-16T13:14:23.159Z,4.77
2024-01-16T13:16:51.624Z,4.43
2024-01-16T13:19:22.765Z,4.57
2024-01-16T13:21:50.543Z,5.13
2024-01-16T13:24:23.741Z,5.50
2024-01-16T13:26:51.154Z,4.33
2024-01-16T13:29:17.957Z,4.53
2024-01-16T13:31:45.212Z,5.40
2024-01-16T13:34:12.535Z,5.03
2024-01-16T13:36:53.860Z,5.30
2024-01-16T13:39:26.700Z,6.33
2024-01-16T13:41:54.206Z,5.97
2024-01-16T13:44:20.883Z,6.10
2024-01-16T13:46:57.487Z,5.87
2024-01-16T13:49:33.849Z,5.90
2024-01-16T13:52:00.841Z,7.23
2024-01-16T13:54:27.358Z,6.03
2024-01-16T13:57:03.160Z,7.03
2024-01-16T13:59:34.267Z,6.30
2024-01-16T14:02:03.491Z,6.83
2024-01-16T14:04:30.119Z,6.30
2024-01-16T14:07:10.512Z,6.67
2024-01-16T14:09:41.744Z,6.27
2024-01-16T14:12:08.971Z,5.33
2024-01-16T14:14:35.586Z,4.80
2024-01-16T14:17:05.621Z,4.77
2024-01-16T14:19:32.633Z,6.63
2024-01-16T14:21:59.883Z,6.03
2024-01-16T14:24:26.697Z,5.40
2024-01-16T14:26:53.769Z,6.23
2024-01-16T14:29:20.569Z,6.97
2024-01-16T14:31:49.095Z,5.77
2024-01-16T14:34:15.905Z,7.07
2024-01-16T14:36:43.101Z,7.17
2024-01-16T14:39:14.086Z,7.43
2024-01-16T14:41:41.764Z,7.40
2024-01-16T14:44:10.272Z,7.30
2024-01-16T14:46:37.895Z,8.00
2024-01-16T14:49:04.923Z,8.13
2024-01-16T14:51:33.054Z,7.13
2024-01-16T14:54:02.266Z,6.77
2024-01-16T14:56:30.845Z,6.97
2024-01-16T14:58:58.497Z,6.57
2024-01-16T15:01:26.019Z,6.37
2024-01-16T15:03:53.872Z,7.33
2024-01-16T15:06:22.950Z,8.00
2024-01-16T15:08:50.186Z,9.90
2024-01-16T15:11:18.258Z,10.03
2024-01-16T15:13:45.904Z,9.87
2024-01-16T15:16:12.855Z,8.90
2024-01-16T15:18:39.430Z,8.63
2024-01-16T15:21:06.534Z,8.47
2024-01-16T15:23:33.644Z,7.80
2024-01-16T15:26:03.669Z,7.90
2024-01-16T15:28:31.236Z,12.10
2024-01-16T15:30:58.170Z,16.63
2024-01-16T15:33:24.831Z,16.57
2024-01-16T15:35:51.718Z,18.23
2024-01-16T15:38:18.889Z,17.97
2024-01-16T15:40:46.446Z,13.43
2024-01-16T15:43:12.885Z,10.30
2024-01-16T15:45:39.691Z,10.70
2024-01-16T15:48:06.627Z,12.27
2024-01-16T15:50:33.831Z,13.27
2024-01-16T15:53:00.661Z,11.70
2024-01-16T15:55:28.357Z,9.13
2024-01-16T15:57:56.270Z,8.73
2024-01-16T16:00:23.956Z,8.00
2024-01-16T16:02:51.926Z,9.40
2024-01-16T16:05:19.135Z,11.20
2024-01-16T16:07:48.037Z,12.10
2024-01-16T16:10:15.221Z,15.47
2024-01-16T16:12:41.748Z,10.93
2024-01-16T16:15:08.729Z,14.20
2024-01-16T16:17:35.942Z,10.93
2024-01-16T16:20:04.091Z,9.97
2024-01-16T16:22:31.025Z,14.00
2024-01-16T16:24:59.720Z,16.27
2024-01-16T16:27:29.270Z,14.63
2024-01-16T16:29:58.086Z,13.83
2024-01-16T16:32:25.766Z,11.03
2024-01-16T16:34:53.829Z,10.77
2024-01-16T16:37:21.419Z,17.07
2024-01-16T16:39:48.894Z,23.90
2024-01-16T16:42:19.788Z,18.23
2024-01-16T16:44:47.619Z,18.47
2024-01-16T16:47:16.029Z,13.83
2024-01-16T16:49:43.447Z,11.70
2024-01-16T16:52:10.357Z,11.43
2024-01-16T16:54:37.355Z,11.63
2024-01-16T16:57:04.516Z,11.97
2024-01-16T16:59:31.784Z,12.57
2024-01-16T17:01:59.589Z,12.90
2024-01-16T17:04:27.009Z,10.60
2024-01-16T17:06:55.972Z,14.07
2024-01-16T17:09:23.525Z,14.17
2024-01-16T17:11:50.640Z,16.47
2024-01-16T17:14:17.929Z,20.40
2024-01-16T17:16:44.769Z,21.67
2024-01-16T17:19:12.882Z,17.13
2024-01-16T17:21:40.573Z,20.53
2024-01-16T17:24:08.046Z,28.53
2024-01-16T17:26:35.730Z,21.43
2024-01-16T17:29:02.893Z,18.17
2024-01-16T17:31:30.142Z,19.97
2024-01-16T17:33:57.756Z,25.90
2024-01-16T17:36:24.820Z,26.27
2024-01-16T17:38:56.421Z,17.33
2024-01-16T17:41:26.414Z,17.47
2024-01-16T17:43:54.337Z,23.07
2024-01-16T17:46:21.269Z,17.20
2024-01-16T17:48:48.870Z,22.13
2024-01-16T17:51:15.753Z,17.80
2024-01-16T17:53:45.280Z,11.30
2024-01-16T17:56:16.207Z,13.73
2024-01-16T17:58:43.904Z,14.47
2024-01-16T18:01:11.930Z,11.23
2024-01-16T18:03:44.968Z,12.80
2024-01-16T18:06:16.605Z,9.97
2024-01-16T18:08:43.496Z,9.67
2024-01-16T18:11:13.241Z,9.67
2024-01-16T18:13:42.489Z,10.93
2024-01-16T18:16:10.003Z,10.30
2024-01-16T18:18:41.381Z,9.73
2024-01-16T18:21:12.618Z,12.63
2024-01-16T18:23:40.956Z,10.73
2024-01-16T18:26:08.448Z,9.33
2024-01-16T18:28:35.234Z,10.43
2024-01-16T18:31:02.952Z,9.77
2024-01-16T18:33:29.957Z,12.43
2024-01-16T18:36:00.582Z,11.30
2024-01-16T18:38:28.293Z,10.13
2024-01-16T18:40:56.524Z,12.30
2024-01-16T18:43:23.193Z,9.57
2024-01-16T18:45:52.230Z,10.43
2024-01-16T18:48:19.218Z,12.57
2024-01-16T18:50:49.846Z,11.53
2024-01-16T18:53:17.179Z,10.40
2024-01-16T18:55:44.165Z,9.70
2024-01-16T18:58:13.672Z,11.70
2024-01-16T19:00:42.869Z,10.60
2024-01-16T19:03:09.969Z,10.27
2024-01-16T19:05:39.332Z,10.03
2024-01-16T19:08:07.768Z,10.30
2024-01-16T19:10:38.882Z,10.00
2024-01-16T19:13:06.202Z,10.30
2024-01-16T19:15:33.617Z,10.77
2024-01-16T19:18:00.366Z,10.97
2024-01-16T19:20:28.766Z,12.10
2024-01-16T19:22:56.589Z,11.90
2024-01-16T19:25:25.850Z,12.43
2024-01-16T19:27:52.788Z,14.70
2024-01-16T19:30:21.362Z,12.83
2024-01-16T19:32:49.519Z,13.97
2024-01-16T19:35:17.845Z,13.43
2024-01-16T19:37:45.043Z,12.17
2024-01-16T19:40:12.686Z,9.43
2024-01-16T19:42:39.711Z,8.17
2024-01-16T19:45:10.220Z,7.23
2024-01-16T19:47:40.045Z,8.90
2024-01-16T19:50:19.278Z,8.70
2024-01-16T19:52:50.867Z,6.73
2024-01-16T19:55:19.851Z,5.60
2024-01-16T19:57:47.524Z,6.80
2024-01-16T20:00:15.103Z,7.40
2024-01-16T20:02:43.283Z,7.43
2024-01-16T20:05:15.594Z,7.53
2024-01-16T20:07:43.464Z,6.73
2024-01-16T20:10:14.218Z,6.53
2024-01-16T20:12:45.112Z,6.13
2024-01-16T20:15:15.948Z,5.40
2024-01-16T20:17:43.396Z,5.77
2024-01-16T20:20:11.038Z,5.73
2024-01-16T20:22:38.030Z,5.73
2024-01-16T20:25:05.400Z,5.97
2024-01-16T20:27:32.333Z,6.37
2024-01-16T20:29:59.222Z,5.77
2024-01-16T20:32:25.935Z,6.30
2024-01-16T20:34:53.874Z,6.23
2024-01-16T20:37:20.862Z,6.00
2024-01-16T20:39:48.242Z,5.97
2024-01-16T20:42:15.314Z,6.47
2024-01-16T20:44:42.319Z,6.63
2024-01-16T20:47:11.206Z,6.47
2024-01-16T20:49:38.419Z,5.90
2024-01-16T20:52:05.405Z,6.03
2024-01-16T20:54:32.446Z,5.80
2024-01-16T20:56:59.324Z,6.23
2024-01-16T20:59:27.457Z,6.87
2024-01-16T21:01:54.733Z,6.30
2024-01-16T21:04:21.543Z,6.53
2024-01-16T21:06:49.134Z,6.63
2024-01-16T21:09:16.167Z,5.97
2024-01-16T21:11:43.922Z,6.00
2024-01-16T21:14:11.321Z,5.90
2024-01-16T21:16:37.851Z,5.90
2024-01-16T21:19:08.398Z,5.43
2024-01-16T21:21:35.736Z,6.20
2024-01-16T21:24:04.739Z,5.87
2024-01-16T21:26:31.496Z,5.03
2024-01-16T21:28:58.359Z,5.63
2024-01-16T21:31:25.474Z,5.43
2024-01-16T21:33:53.568Z,5.10
2024-01-16T21:36:20.543Z,5.90
2024-01-16T21:38:47.961Z,5.00
2024-01-16T21:41:14.583Z,5.00
2024-01-16T21:43:41.505Z,5.23
2024-01-16T21:46:07.948Z,5.20
2024-01-16T21:48:35.677Z,5.30
2024-01-16T21:51:02.617Z,6.97
2024-01-16T21:53:29.513Z,8.63
2024-01-16T21:55:56.173Z,5.63
2024-01-16T21:58:22.863Z,5.97
2024-01-16T22:00:49.894Z,5.53
2024-01-16T22:03:16.735Z,5.70
2024-01-16T22:05:43.508Z,5.00
2024-01-16T22:08:10.303Z,6.17
2024-01-16T22:10:42.184Z,6.90
2024-01-16T22:13:09.730Z,6.87
2024-01-16T22:15:36.185Z,5.80
2024-01-16T22:18:15.698Z,6.57
2024-01-16T22:20:42.299Z,6.67
2024-01-16T22:23:09.719Z,6.13
2024-01-16T22:25:36.729Z,7.07
2024-01-16T22:28:04.011Z,5.70
2024-01-16T22:30:30.613Z,6.43
2024-01-16T22:33:00.608Z,6.00
2024-01-16T22:35:27.450Z,6.40
2024-01-16T22:37:54.551Z,6.13
2024-01-16T22:40:21.149Z,6.40
2024-01-16T22:42:47.956Z,6.33
2024-01-16T22:45:16.634Z,5.90
2024-01-16T22:47:44.026Z,6.07
2024-01-16T22:50:11.814Z,6.30
2024-01-16T22:52:39.778Z,7.00
2024-01-16T22:55:06.389Z,6.33
2024-01-16T22:57:33.324Z,7.13
2024-01-16T23:00:00.665Z,7.20
2024-01-16T23:02:29.312Z,8.07
2024-01-16T23:04:56.066Z,7.37
2024-01-16T23:07:22.543Z,7.00
2024-01-16T23:09:49.341Z,6.83
2024-01-16T23:12:16.209Z,6.47
2024-01-16T23:14:43.680Z,6.97
2024-01-16T23:17:10.134Z,6.73
2024-01-16T23:19:37.073Z,6.87
2024-01-16T23:22:04.516Z,6.97
2024-01-16T23:24:31.460Z,6.90
2024-01-16T23:26:58.050Z,7.27
2024-01-16T23:29:24.814Z,6.97
2024-01-16T23:31:51.343Z,7.30
2024-01-16T23:34:18.609Z,6.47
2024-01-16T23:36:45.109Z,8.93
2024-01-16T23:39:12.007Z,8.40
2024-01-16T23:41:38.668Z,8.10
2024-01-16T23:44:05.391Z,7.47
2024-01-16T23:46:35.307Z,7.57
2024-01-16T23:49:02.394Z,7.57
2024-01-16T23:51:31.596Z,8.00
2024-01-16T23:53:58.535Z,6.97
2024-01-16T23:56:25.183Z,7.40
2024-01-16T23:58:51.985Z,7.17
